sensor_id;sensor_type;location;lat;lon;timestamp;P1;durP1;ratioP1;P2;durP2;ratioP2
16593;SDS011;8410;52.532;13.336;2023-08-20T00:02:27;19.23;;;17.63;;
16593;SDS011;8410;52.532;13.336;2023-08-20T00:04:58;56.83;;;51.78;;
16593;SDS011;8410;52.532;13.336;2023-08-20T00:07:30;16.08;;;14.68;;
16593;SDS011;8410;52.532;13.336;2023-08-20T00:09:58;14.30;;;13.18;;
16593;SDS011;8410;52.532;13.336;2023-08-20T00:12:26;15.30;;;13.80;;
16593;SDS011;8410;52.532;13.336;2023-08-20T00:14:55;37.38;;;34.00;;
16593;SDS011;8410;52.532;13.336;2023-08-20T00:17:26;14.10;;;12.90;;
16593;SDS011;8410;52.532;13.336;2023-08-20T00:19:54;24.92;;;22.80;;
16593;SDS011;8410;52.532;13.336;2023-08-20T00:22:22;16.45;;;15.05;;
16593;SDS011;8410;52.532;13.336;2023-08-20T00:24:51;13.85;;;12.75;;
16593;SDS011;8410;52.532;13.336;2023-08-20T00:27:20;13.55;;;12.50;;
16593;SDS011;8410;52.532;13.336;2023-08-20T00:29:47;15.15;;;13.95;;
16593;SDS011;8410;52.532;13.336;2023-08-20T00:32:15;14.63;;;13.43;;
16593;SDS011;8410;52.532;13.336;2023-08-20T00:34:44;16.02;;;14.45;;
16593;SDS011;8410;52.532;13.336;2023-08-20T00:37:12;39.25;;;35.88;;
16593;SDS011;8410;52.532;13.336;2023-08-20T00:39:39;17.80;;;16.38;;
16593;SDS011;8410;52.532;13.336;2023-08-20T00:42:07;18.75;;;17.08;;
16593;SDS011;8410;52.532;13.336;2023-08-20T00:44:35;18.80;;;17.13;;
16593;SDS011;8410;52.532;13.336;2023-08-20T00:47:02;22.30;;;13.70;;
16593;SDS011;8410;52.532;13.336;2023-08-20T00:49:32;22.63;;;20.73;;
16593;SDS011;8410;52.532;13.336;2023-08-20T00:52:01;13.25;;;12.25;;
16593;SDS011;8410;52.532;13.336;2023-08-20T00:54:29;17.08;;;15.68;;
16593;SDS011;8410;52.532;13.336;2023-08-20T00:56:59;15.43;;;14.20;;
16593;SDS011;8410;52.532;13.336;2023-08-20T00:59:29;16.05;;;14.75;;
16593;SDS011;8410;52.532;13.336;2023-08-20T01:01:57;16.50;;;14.98;;
16593;SDS011;8410;52.532;13.336;2023-08-20T01:04:24;15.13;;;13.93;;
16593;SDS011;8410;52.532;13.336;2023-08-20T01:06:53;15.25;;;13.88;;
16593;SDS011;8410;52.532;13.336;2023-08-20T01:09:33;14.10;;;12.90;;
16593;SDS011;8410;52.532;13.336;2023-08-20T01:12:10;14.30;;;13.15;;
16593;SDS011;8410;52.532;13.336;2023-08-20T01:14:38;13.93;;;12.73;;
16593;SDS011;8410;52.532;13.336;2023-08-20T01:17:06;14.27;;;13.05;;
16593;SDS011;8410;52.532;13.336;2023-08-20T01:19:33;13.75;;;12.55;;
16593;SDS011;8410;52.532;13.336;2023-08-20T01:22:08;13.55;;;12.45;;
16593;SDS011;8410;52.532;13.336;2023-08-20T01:24:54;14.25;;;12.82;;
16593;SDS011;8410;52.532;13.336;2023-08-20T01:27:28;13.77;;;12.65;;
16593;SDS011;8410;52.532;13.336;2023-08-20T01:30:09;13.02;;;11.82;;
16593;SDS011;8410;52.532;13.336;2023-08-20T01:32:37;13.38;;;12.10;;
16593;SDS011;8410;52.532;13.336;2023-08-20T01:35:08;14.18;;;12.98;;
16593;SDS011;8410;52.532;13.336;2023-08-20T01:37:39;13.63;;;12.32;;
16593;SDS011;8410;52.532;13.336;2023-08-20T01:40:07;13.05;;;11.95;;
16593;SDS011;8410;52.532;13.336;2023-08-20T01:42:36;12.57;;;11.48;;
16593;SDS011;8410;52.532;13.336;2023-08-20T01:45:04;14.00;;;12.63;;
16593;SDS011;8410;52.532;13.336;2023-08-20T01:47:34;13.73;;;12.35;;
16593;SDS011;8410;52.532;13.336;2023-08-20T01:50:02;12.68;;;11.57;;
16593;SDS011;8410;52.532;13.336;2023-08-20T01:52:33;13.63;;;12.32;;
16593;SDS011;8410;52.532;13.336;2023-08-20T01:55:01;13.55;;;12.32;;
16593;SDS011;8410;52.532;13.336;2023-08-20T01:57:28;13.57;;;12.18;;
16593;SDS011;8410;52.532;13.336;2023-08-20T01:59:56;13.63;;;12.23;;
16593;SDS011;8410;52.532;13.336;2023-08-20T02:02:24;12.60;;;11.50;;
16593;SDS011;8410;52.532;13.336;2023-08-20T02:04:53;13.43;;;12.10;;
16593;SDS011;8410;52.532;13.336;2023-08-20T02:07:21;12.68;;;11.68;;
16593;SDS011;8410;52.532;13.336;2023-08-20T02:09:48;15.18;;;12.32;;
16593;SDS011;8410;52.532;13.336;2023-08-20T02:12:16;13.10;;;12.00;;
16593;SDS011;8410;52.532;13.336;2023-08-20T02:14:45;13.27;;;12.18;;
16593;SDS011;8410;52.532;13.336;2023-08-20T02:17:12;14.10;;;12.82;;
16593;SDS011;8410;52.532;13.336;2023-08-20T02:19:40;12.70;;;11.70;;
16593;SDS011;8410;52.532;13.336;2023-08-20T02:22:09;12.82;;;11.68;;
16593;SDS011;8410;52.532;13.336;2023-08-20T02:24:37;11.95;;;10.95;;
16593;SDS011;8410;52.532;13.336;2023-08-20T02:27:04;12.52;;;11.32;;
16593;SDS011;8410;52.532;13.336;2023-08-20T02:29:32;13.45;;;12.13;;
16593;SDS011;8410;52.532;13.336;2023-08-20T02:31:59;11.88;;;10.80;;
16593;SDS011;8410;52.532;13.336;2023-08-20T02:34:27;12.68;;;11.48;;
16593;SDS011;8410;52.532;13.336;2023-08-20T02:36:54;13.07;;;11.90;;
16593;SDS011;8410;52.532;13.336;2023-08-20T02:39:23;12.00;;;11.10;;
16593;SDS011;8410;52.532;13.336;2023-08-20T02:41:51;11.13;;;10.25;;
16593;SDS011;8410;52.532;13.336;2023-08-20T02:44:18;12.75;;;11.65;;
16593;SDS011;8410;52.532;13.336;2023-08-20T02:46:46;13.55;;;11.57;;
16593;SDS011;8410;52.532;13.336;2023-08-20T02:49:13;12.88;;;11.65;;
16593;SDS011;8410;52.532;13.336;2023-08-20T02:51:42;11.90;;;10.70;;
16593;SDS011;8410;52.532;13.336;2023-08-20T02:54:09;10.77;;;9.70;;
16593;SDS011;8410;52.532;13.336;2023-08-20T02:56:38;11.52;;;10.55;;
16593;SDS011;8410;52.532;13.336;2023-08-20T02:59:06;11.48;;;10.30;;
16593;SDS011;8410;52.532;13.336;2023-08-20T03:01:33;11.13;;;9.98;;
16593;SDS011;8410;52.532;13.336;2023-08-20T03:04:01;11.55;;;9.90;;
16593;SDS011;8410;52.532;13.336;2023-08-20T03:06:29;11.43;;;10.52;;
16593;SDS011;8410;52.532;13.336;2023-08-20T03:08:56;11.07;;;10.18;;
16593;SDS011;8410;52.532;13.336;2023-08-20T03:11:24;10.90;;;9.88;;
16593;SDS011;8410;52.532;13.336;2023-08-20T03:13:53;11.20;;;10.20;;
16593;SDS011;8410;52.532;13.336;2023-08-20T03:16:20;10.95;;;10.07;;
16593;SDS011;8410;52.532;13.336;2023-08-20T03:18:48;10.98;;;9.90;;
16593;SDS011;8410;52.532;13.336;2023-08-20T03:21:15;10.48;;;9.60;;
16593;SDS011;8410;52.532;13.336;2023-08-20T03:23:42;10.27;;;9.48;;
16593;SDS011;8410;52.532;13.336;2023-08-20T03:26:10;10.23;;;9.43;;
16593;SDS011;8410;52.532;13.336;2023-08-20T03:28:38;11.05;;;9.85;;
16593;SDS011;8410;52.532;13.336;2023-08-20T03:31:07;11.48;;;10.35;;
16593;SDS011;8410;52.532;13.336;2023-08-20T03:33:34;11.20;;;10.10;;
16593;SDS011;8410;52.532;13.336;2023-08-20T03:36:02;9.95;;;9.00;;
16593;SDS011;8410;52.532;13.336;2023-08-20T03:38:30;11.98;;;9.20;;
16593;SDS011;8410;52.532;13.336;2023-08-20T03:40:57;10.23;;;9.10;;
16593;SDS011;8410;52.532;13.336;2023-08-20T03:43:25;10.63;;;9.10;;
16593;SDS011;8410;52.532;13.336;2023-08-20T03:45:52;10.52;;;9.55;;
16593;SDS011;8410;52.532;13.336;2023-08-20T03:48:22;10.60;;;9.70;;
16593;SDS011;8410;52.532;13.336;2023-08-20T03:50:49;10.60;;;9.50;;
16593;SDS011;8410;52.532;13.336;2023-08-20T03:53:17;10.13;;;9.00;;
16593;SDS011;8410;52.532;13.336;2023-08-20T03:55:47;10.48;;;9.60;;
16593;SDS011;8410;52.532;13.336;2023-08-20T03:58:15;10.43;;;9.52;;
16593;SDS011;8410;52.532;13.336;2023-08-20T04:00:43;10.30;;;9.23;;
16593;SDS011;8410;52.532;13.336;2023-08-20T04:03:11;10.30;;;9.50;;
16593;SDS011;8410;52.532;13.336;2023-08-20T04:05:41;10.77;;;9.80;;
16593;SDS011;8410;52.532;13.336;2023-08-20T04:08:09;11.10;;;10.00;;
16593;SDS011;8410;52.532;13.336;2023-08-20T04:10:41;10.48;;;9.45;;
16593;SDS011;8410;52.532;13.336;2023-08-20T04:13:09;9.55;;;8.85;;
16593;SDS011;8410;52.532;13.336;2023-08-20T04:15:37;13.35;;;10.10;;
16593;SDS011;8410;52.532;13.336;2023-08-20T04:18:05;10.98;;;9.93;;
16593;SDS011;8410;52.532;13.336;2023-08-20T04:20:32;10.73;;;9.65;;
16593;SDS011;8410;52.532;13.336;2023-08-20T04:23:01;10.73;;;9.73;;
16593;SDS011;8410;52.532;13.336;2023-08-20T04:25:29;9.60;;;8.77;;
16593;SDS011;8410;52.532;13.336;2023-08-20T04:27:56;11.13;;;9.95;;
16593;SDS011;8410;52.532;13.336;2023-08-20T04:30:24;10.20;;;9.40;;
16593;SDS011;8410;52.532;13.336;2023-08-20T04:32:51;11.75;;;9.38;;
16593;SDS011;8410;52.532;13.336;2023-08-20T04:35:19;11.10;;;10.07;;
16593;SDS011;8410;52.532;13.336;2023-08-20T04:37:46;10.88;;;9.88;;
16593;SDS011;8410;52.532;13.336;2023-08-20T04:40:15;11.40;;;10.40;;
16593;SDS011;8410;52.532;13.336;2023-08-20T04:42:44;10.15;;;9.27;;
16593;SDS011;8410;52.532;13.336;2023-08-20T04:45:11;9.80;;;9.00;;
16593;SDS011;8410;52.532;13.336;2023-08-20T04:47:39;10.18;;;9.32;;
16593;SDS011;8410;52.532;13.336;2023-08-20T04:50:07;11.25;;;10.35;;
16593;SDS011;8410;52.532;13.336;2023-08-20T04:52:35;10.13;;;9.30;;
16593;SDS011;8410;52.532;13.336;2023-08-20T04:55:02;10.63;;;9.73;;
16593;SDS011;8410;52.532;13.336;2023-08-20T04:57:32;11.52;;;10.55;;
16593;SDS011;8410;52.532;13.336;2023-08-20T05:00:00;9.90;;;9.05;;
16593;SDS011;8410;52.532;13.336;2023-08-20T05:02:28;10.90;;;9.75;;
16593;SDS011;8410;52.532;13.336;2023-08-20T05:04:56;11.05;;;10.00;;
16593;SDS011;8410;52.532;13.336;2023-08-20T05:07:23;11.90;;;10.90;;
16593;SDS011;8410;52.532;13.336;2023-08-20T05:09:51;10.77;;;9.88;;
16593;SDS011;8410;52.532;13.336;2023-08-20T05:12:18;10.95;;;10.05;;
16593;SDS011;8410;52.532;13.336;2023-08-20T05:14:47;11.38;;;10.38;;
16593;SDS011;8410;52.532;13.336;2023-08-20T05:17:15;11.35;;;10.10;;
16593;SDS011;8410;52.532;13.336;2023-08-20T05:19:42;10.80;;;9.98;;
16593;SDS011;8410;52.532;13.336;2023-08-20T05:22:10;12.20;;;11.20;;
16593;SDS011;8410;52.532;13.336;2023-08-20T05:24:38;12.57;;;11.25;;
16593;SDS011;8410;52.532;13.336;2023-08-20T05:27:06;13.50;;;12.35;;
16593;SDS011;8410;52.532;13.336;2023-08-20T05:29:34;13.13;;;12.02;;
16593;SDS011;8410;52.532;13.336;2023-08-20T05:32:03;12.77;;;11.77;;
16593;SDS011;8410;52.532;13.336;2023-08-20T05:34:31;13.10;;;11.90;;
16593;SDS011;8410;52.532;13.336;2023-08-20T05:36:59;12.60;;;11.50;;
16593;SDS011;8410;52.532;13.336;2023-08-20T05:39:27;14.25;;;13.07;;
16593;SDS011;8410;52.532;13.336;2023-08-20T05:41:54;13.23;;;12.13;;
16593;SDS011;8410;52.532;13.336;2023-08-20T05:44:22;13.07;;;11.77;;
16593;SDS011;8410;52.532;13.336;2023-08-20T05:46:49;13.43;;;12.23;;
16593;SDS011;8410;52.532;13.336;2023-08-20T05:49:18;13.88;;;12.77;;
16593;SDS011;8410;52.532;13.336;2023-08-20T05:51:46;13.18;;;12.00;;
16593;SDS011;8410;52.532;13.336;2023-08-20T05:54:13;18.42;;;13.48;;
16593;SDS011;8410;52.532;13.336;2023-08-20T05:56:41;13.50;;;12.25;;
16593;SDS011;8410;52.532;13.336;2023-08-20T05:59:08;13.93;;;12.73;;
16593;SDS011;8410;52.532;13.336;2023-08-20T06:01:36;14.65;;;13.30;;
16593;SDS011;8410;52.532;13.336;2023-08-20T06:04:04;14.20;;;12.82;;
16593;SDS011;8410;52.532;13.336;2023-08-20T06:06:33;10.94;;;10.09;;
16593;SDS011;8410;52.532;13.336;2023-08-20T06:09:00;15.07;;;13.77;;
16593;SDS011;8410;52.532;13.336;2023-08-20T06:11:35;14.20;;;12.70;;
16593;SDS011;8410;52.532;13.336;2023-08-20T06:14:02;14.93;;;13.52;;
16593;SDS011;8410;52.532;13.336;2023-08-20T06:16:30;14.95;;;13.52;;
16593;SDS011;8410;52.532;13.336;2023-08-20T06:19:00;15.27;;;13.93;;
16593;SDS011;8410;52.532;13.336;2023-08-20T06:21:30;14.80;;;13.40;;
16593;SDS011;8410;52.532;13.336;2023-08-20T06:23:59;16.48;;;14.98;;
16593;SDS011;8410;52.532;13.336;2023-08-20T06:26:27;14.85;;;13.55;;
16593;SDS011;8410;52.532;13.336;2023-08-20T06:28:54;14.90;;;13.57;;
16593;SDS011;8410;52.532;13.336;2023-08-20T06:31:22;13.80;;;12.73;;
16593;SDS011;8410;52.532;13.336;2023-08-20T06:33:49;14.85;;;13.45;;
16593;SDS011;8410;52.532;13.336;2023-08-20T06:36:17;13.38;;;12.00;;
16593;SDS011;8410;52.532;13.336;2023-08-20T06:38:46;14.80;;;13.40;;
16593;SDS011;8410;52.532;13.336;2023-08-20T06:41:14;14.57;;;13.10;;
16593;SDS011;8410;52.532;13.336;2023-08-20T06:43:42;14.48;;;13.10;;
16593;SDS011;8410;52.532;13.336;2023-08-20T06:46:09;13.50;;;12.30;;
16593;SDS011;8410;52.532;13.336;2023-08-20T06:48:37;13.88;;;12.77;;
16593;SDS011;8410;52.532;13.336;2023-08-20T06:51:08;13.75;;;12.52;;
16593;SDS011;8410;52.532;13.336;2023-08-20T06:53:38;13.90;;;12.60;;
16593;SDS011;8410;52.532;13.336;2023-08-20T06:56:06;13.77;;;12.57;;
16593;SDS011;8410;52.532;13.336;2023-08-20T06:58:36;14.10;;;12.82;;
16593;SDS011;8410;52.532;13.336;2023-08-20T07:01:04;12.40;;;11.30;;
16593;SDS011;8410;52.532;13.336;2023-08-20T07:03:34;12.40;;;11.25;;
16593;SDS011;8410;52.532;13.336;2023-08-20T07:06:02;11.82;;;10.63;;
16593;SDS011;8410;52.532;13.336;2023-08-20T07:08:30;12.25;;;11.23;;
16593;SDS011;8410;52.532;13.336;2023-08-20T07:10:57;12.10;;;11.00;;
16593;SDS011;8410;52.532;13.336;2023-08-20T07:13:25;12.73;;;11.65;;
16593;SDS011;8410;52.532;13.336;2023-08-20T07:15:54;13.20;;;12.00;;
16593;SDS011;8410;52.532;13.336;2023-08-20T07:18:22;14.10;;;12.68;;
16593;SDS011;8410;52.532;13.336;2023-08-20T07:20:49;13.07;;;11.82;;
16593;SDS011;8410;52.532;13.336;2023-08-20T07:23:17;12.85;;;11.68;;
16593;SDS011;8410;52.532;13.336;2023-08-20T07:25:45;11.98;;;10.98;;
16593;SDS011;8410;52.532;13.336;2023-08-20T07:28:13;12.45;;;11.30;;
16593;SDS011;8410;52.532;13.336;2023-08-20T07:30:40;12.65;;;11.43;;
16593;SDS011;8410;52.532;13.336;2023-08-20T07:33:09;12.77;;;11.63;;
16593;SDS011;8410;52.532;13.336;2023-08-20T07:35:36;14.57;;;13.20;;
16593;SDS011;8410;52.532;13.336;2023-08-20T07:38:04;13.55;;;12.25;;
16593;SDS011;8410;52.532;13.336;2023-08-20T07:40:31;14.90;;;12.40;;
16593;SDS011;8410;52.532;13.336;2023-08-20T07:43:00;12.48;;;11.32;;
16593;SDS011;8410;52.532;13.336;2023-08-20T07:45:29;13.90;;;12.57;;
16593;SDS011;8410;52.532;13.336;2023-08-20T07:47:56;13.18;;;11.98;;
16593;SDS011;8410;52.532;13.336;2023-08-20T07:50:25;13.85;;;12.60;;
16593;SDS011;8410;52.532;13.336;2023-08-20T07:52:53;12.20;;;11.18;;
16593;SDS011;8410;52.532;13.336;2023-08-20T07:55:20;12.77;;;11.68;;
16593;SDS011;8410;52.532;13.336;2023-08-20T07:57:48;15.18;;;13.63;;
16593;SDS011;8410;52.532;13.336;2023-08-20T08:00:16;14.10;;;12.80;;
16593;SDS011;8410;52.532;13.336;2023-08-20T08:02:44;13.80;;;12.57;;
16593;SDS011;8410;52.532;13.336;2023-08-20T08:05:11;14.23;;;12.57;;
16593;SDS011;8410;52.532;13.336;2023-08-20T08:07:41;12.68;;;11.43;;
16593;SDS011;8410;52.532;13.336;2023-08-20T08:10:09;13.27;;;12.15;;
16593;SDS011;8410;52.532;13.336;2023-08-20T08:12:36;13.27;;;11.80;;
16593;SDS011;8410;52.532;13.336;2023-08-20T08:15:04;12.25;;;11.18;;
16593;SDS011;8410;52.532;13.336;2023-08-20T08:17:32;10.60;;;9.65;;
16593;SDS011;8410;52.532;13.336;2023-08-20T08:20:00;11.35;;;10.32;;
16593;SDS011;8410;52.532;13.336;2023-08-20T08:22:29;11.20;;;10.20;;
16593;SDS011;8410;52.532;13.336;2023-08-20T08:24:58;10.35;;;9.48;;
16593;SDS011;8410;52.532;13.336;2023-08-20T08:27:25;9.65;;;8.70;;
16593;SDS011;8410;52.532;13.336;2023-08-20T08:29:53;9.93;;;9.00;;
16593;SDS011;8410;52.532;13.336;2023-08-20T08:32:20;10.52;;;9.50;;
16593;SDS011;8410;52.532;13.336;2023-08-20T08:34:48;10.57;;;9.63;;
16593;SDS011;8410;52.532;13.336;2023-08-20T08:37:15;10.27;;;8.05;;
16593;SDS011;8410;52.532;13.336;2023-08-20T08:39:43;8.07;;;7.28;;
16593;SDS011;8410;52.532;13.336;2023-08-20T08:42:12;8.27;;;7.57;;
16593;SDS011;8410;52.532;13.336;2023-08-20T08:44:41;8.15;;;7.45;;
16593;SDS011;8410;52.532;13.336;2023-08-20T08:47:09;9.07;;;7.90;;
16593;SDS011;8410;52.532;13.336;2023-08-20T08:49:37;7.22;;;6.53;;
16593;SDS011;8410;52.532;13.336;2023-08-20T08:52:04;7.57;;;6.78;;
16593;SDS011;8410;52.532;13.336;2023-08-20T08:54:33;6.57;;;5.97;;
16593;SDS011;8410;52.532;13.336;2023-08-20T08:57:00;5.80;;;5.10;;
16593;SDS011;8410;52.532;13.336;2023-08-20T08:59:30;7.07;;;6.10;;
16593;SDS011;8410;52.532;13.336;2023-08-20T09:01:57;5.43;;;4.93;;
16593;SDS011;8410;52.532;13.336;2023-08-20T09:04:25;5.03;;;4.47;;
16593;SDS011;8410;52.532;13.336;2023-08-20T09:06:54;5.38;;;4.88;;
16593;SDS011;8410;52.532;13.336;2023-08-20T09:09:23;5.28;;;4.78;;
16593;SDS011;8410;52.532;13.336;2023-08-20T09:11:51;4.82;;;4.43;;
16593;SDS011;8410;52.532;13.336;2023-08-20T09:14:21;4.88;;;4.40;;
16593;SDS011;8410;52.532;13.336;2023-08-20T09:16:57;4.80;;;4.38;;
16593;SDS011;8410;52.532;13.336;2023-08-20T09:19:27;4.82;;;4.43;;
16593;SDS011;8410;52.532;13.336;2023-08-20T09:21:59;7.10;;;5.10;;
16593;SDS011;8410;52.532;13.336;2023-08-20T09:24:26;5.10;;;4.70;;
16593;SDS011;8410;52.532;13.336;2023-08-20T09:27:01;5.50;;;5.00;;
16593;SDS011;8410;52.532;13.336;2023-08-20T09:29:31;6.10;;;5.07;;
16593;SDS011;8410;52.532;13.336;2023-08-20T09:32:01;4.90;;;4.50;;
16593;SDS011;8410;52.532;13.336;2023-08-20T09:34:36;5.35;;;4.85;;
16593;SDS011;8410;52.532;13.336;2023-08-20T09:37:12;5.00;;;4.60;;
16593;SDS011;8410;52.532;13.336;2023-08-20T09:39:40;6.25;;;4.40;;
16593;SDS011;8410;52.532;13.336;2023-08-20T09:42:08;5.28;;;4.80;;
16593;SDS011;8410;52.532;13.336;2023-08-20T09:44:39;5.15;;;4.75;;
16593;SDS011;8410;52.532;13.336;2023-08-20T09:47:09;5.50;;;4.75;;
16593;SDS011;8410;52.532;13.336;2023-08-20T09:49:37;5.32;;;4.38;;
16593;SDS011;8410;52.532;13.336;2023-08-20T09:52:07;4.50;;;4.10;;
16593;SDS011;8410;52.532;13.336;2023-08-20T09:57:25;5.00;;;3.92;;
16593;SDS011;8410;52.532;13.336;2023-08-20T09:59:56;3.60;;;3.30;;
16593;SDS011;8410;52.532;13.336;2023-08-20T10:02:26;4.13;;;3.72;;
16593;SDS011;8410;52.532;13.336;2023-08-20T10:04:54;5.05;;;3.90;;
16593;SDS011;8410;52.532;13.336;2023-08-20T10:07:22;4.22;;;2.97;;
16593;SDS011;8410;52.532;13.336;2023-08-20T10:09:50;4.15;;;3.30;;
16593;SDS011;8410;52.532;13.336;2023-08-20T10:12:18;3.25;;;2.63;;
16593;SDS011;8410;52.532;13.336;2023-08-20T10:14:46;4.53;;;2.85;;
16593;SDS011;8410;52.532;13.336;2023-08-20T10:17:14;3.10;;;2.80;;
16593;SDS011;8410;52.532;13.336;2023-08-20T10:19:43;2.90;;;2.60;;
16593;SDS011;8410;52.532;13.336;2023-08-20T10:22:10;2.80;;;2.50;;
16593;SDS011;8410;52.532;13.336;2023-08-20T10:24:44;2.47;;;2.28;;
16593;SDS011;8410;52.532;13.336;2023-08-20T10:27:23;2.63;;;2.42;;
16593;SDS011;8410;52.532;13.336;2023-08-20T10:29:52;4.88;;;2.20;;
16593;SDS011;8410;52.532;13.336;2023-08-20T10:32:43;2.25;;;1.92;;
16593;SDS011;8410;52.532;13.336;2023-08-20T10:35:12;4.07;;;2.38;;
16593;SDS011;8410;52.532;13.336;2023-08-20T10:37:43;3.25;;;2.42;;
16593;SDS011;8410;52.532;13.336;2023-08-20T10:40:47;3.13;;;2.40;;
16593;SDS011;8410;52.532;13.336;2023-08-20T10:43:31;3.58;;;2.55;;
16593;SDS011;8410;52.532;13.336;2023-08-20T10:46:13;2.83;;;2.00;;
16593;SDS011;8410;52.532;13.336;2023-08-20T10:48:43;3.55;;;2.30;;
16593;SDS011;8410;52.532;13.336;2023-08-20T10:51:15;2.70;;;2.28;;
16593;SDS011;8410;52.532;13.336;2023-08-20T10:53:48;4.30;;;2.25;;
16593;SDS011;8410;52.532;13.336;2023-08-20T10:56:37;3.55;;;2.40;;
16593;SDS011;8410;52.532;13.336;2023-08-20T10:59:07;3.20;;;2.50;;
16593;SDS011;8410;52.532;13.336;2023-08-20T11:01:35;4.40;;;2.70;;
16593;SDS011;8410;52.532;13.336;2023-08-20T11:04:04;2.20;;;2.00;;
16593;SDS011;8410;52.532;13.336;2023-08-20T11:06:34;3.88;;;2.33;;
16593;SDS011;8410;52.532;13.336;2023-08-20T11:09:02;4.15;;;2.75;;
16593;SDS011;8410;52.532;13.336;2023-08-20T11:11:31;3.25;;;2.30;;
16593;SDS011;8410;52.532;13.336;2023-08-20T11:14:03;2.75;;;2.00;;
16593;SDS011;8410;52.532;13.336;2023-08-20T11:16:32;3.60;;;2.20;;
16593;SDS011;8410;52.532;13.336;2023-08-20T11:19:00;5.50;;;2.55;;
16593;SDS011;8410;52.532;13.336;2023-08-20T11:21:28;2.55;;;2.17;;
16593;SDS011;8410;52.532;13.336;2023-08-20T11:23:57;3.90;;;2.10;;
16593;SDS011;8410;52.532;13.336;2023-08-20T11:26:27;2.65;;;2.13;;
16593;SDS011;8410;52.532;13.336;2023-08-20T11:28:54;3.10;;;2.30;;
16593;SDS011;8410;52.532;13.336;2023-08-20T11:31:22;3.58;;;2.33;;
16593;SDS011;8410;52.532;13.336;2023-08-20T11:33:50;3.05;;;2.28;;
16593;SDS011;8410;52.532;13.336;2023-08-20T11:36:17;3.83;;;2.08;;
16593;SDS011;8410;52.532;13.336;2023-08-20T11:38:49;2.40;;;2.20;;
16593;SDS011;8410;52.532;13.336;2023-08-20T11:41:19;5.05;;;2.67;;
16593;SDS011;8410;52.532;13.336;2023-08-20T11:43:47;3.28;;;2.17;;
16593;SDS011;8410;52.532;13.336;2023-08-20T11:46:14;3.35;;;2.30;;
16593;SDS011;8410;52.532;13.336;2023-08-20T11:51:29;2.90;;;2.10;;
16593;SDS011;8410;52.532;13.336;2023-08-20T11:53:57;2.20;;;2.00;;
16593;SDS011;8410;52.532;13.336;2023-08-20T11:56:27;2.35;;;2.13;;
16593;SDS011;8410;52.532;13.336;2023-08-20T11:58:58;3.10;;;2.45;;
16593;SDS011;8410;52.532;13.336;2023-08-20T12:01:29;2.42;;;2.22;;
16593;SDS011;8410;52.532;13.336;2023-08-20T12:04:00;2.47;;;2.00;;
16593;SDS011;8410;52.532;13.336;2023-08-20T12:06:29;3.72;;;2.47;;
16593;SDS011;8410;52.532;13.336;2023-08-20T12:08:57;2.35;;;2.13;;
16593;SDS011;8410;52.532;13.336;2023-08-20T12:11:25;2.47;;;1.90;;
16593;SDS011;8410;52.532;13.336;2023-08-20T12:13:54;2.67;;;1.75;;
16593;SDS011;8410;52.532;13.336;2023-08-20T12:16:22;2.05;;;1.85;;
16593;SDS011;8410;52.532;13.336;2023-08-20T12:18:51;3.00;;;1.90;;
16593;SDS011;8410;52.532;13.336;2023-08-20T12:21:19;3.53;;;1.98;;
16593;SDS011;8410;52.532;13.336;2023-08-20T12:23:46;2.28;;;1.65;;
16593;SDS011;8410;52.532;13.336;2023-08-20T12:26:14;3.85;;;2.03;;
16593;SDS011;8410;52.532;13.336;2023-08-20T12:28:41;2.95;;;1.50;;
16593;SDS011;8410;52.532;13.336;2023-08-20T12:31:10;3.47;;;1.80;;
16593;SDS011;8410;52.532;13.336;2023-08-20T12:33:38;2.42;;;1.90;;
16593;SDS011;8410;52.532;13.336;2023-08-20T12:36:05;2.55;;;2.08;;
16593;SDS011;8410;52.532;13.336;2023-08-20T12:38:33;3.03;;;1.98;;
16593;SDS011;8410;52.532;13.336;2023-08-20T12:41:00;1.45;;;1.35;;
16593;SDS011;8410;52.532;13.336;2023-08-20T12:43:30;1.92;;;1.67;;
16593;SDS011;8410;52.532;13.336;2023-08-20T12:45:58;2.10;;;1.67;;
16593;SDS011;8410;52.532;13.336;2023-08-20T12:48:31;1.88;;;1.65;;
16593;SDS011;8410;52.532;13.336;2023-08-20T12:50:59;2.67;;;1.95;;
16593;SDS011;8410;52.532;13.336;2023-08-20T12:53:26;2.75;;;1.50;;
16593;SDS011;8410;52.532;13.336;2023-08-20T12:55:54;1.85;;;1.65;;
16593;SDS011;8410;52.532;13.336;2023-08-20T12:58:21;1.60;;;1.50;;
16593;SDS011;8410;52.532;13.336;2023-08-20T13:00:50;2.85;;;1.60;;
16593;SDS011;8410;52.532;13.336;2023-08-20T13:03:18;2.92;;;1.40;;
16593;SDS011;8410;52.532;13.336;2023-08-20T13:05:47;2.55;;;1.20;;
16593;SDS011;8410;52.532;13.336;2023-08-20T13:08:15;2.47;;;1.70;;
16593;SDS011;8410;52.532;13.336;2023-08-20T13:10:44;3.85;;;1.52;;
16593;SDS011;8410;52.532;13.336;2023-08-20T13:13:21;1.33;;;1.23;;
16593;SDS011;8410;52.532;13.336;2023-08-20T13:15:50;2.90;;;1.67;;
16593;SDS011;8410;52.532;13.336;2023-08-20T13:18:19;1.63;;;1.20;;
16593;SDS011;8410;52.532;13.336;2023-08-20T13:20:53;1.95;;;1.20;;
16593;SDS011;8410;52.532;13.336;2023-08-20T13:23:20;2.15;;;1.40;;
16593;SDS011;8410;52.532;13.336;2023-08-20T13:25:48;1.63;;;1.20;;
16593;SDS011;8410;52.532;13.336;2023-08-20T13:28:15;3.45;;;1.45;;
16593;SDS011;8410;52.532;13.336;2023-08-20T13:30:44;1.88;;;1.00;;
16593;SDS011;8410;52.532;13.336;2023-08-20T13:33:12;1.75;;;1.10;;
16593;SDS011;8410;52.532;13.336;2023-08-20T13:35:40;3.25;;;1.20;;
16593;SDS011;8410;52.532;13.336;2023-08-20T13:38:09;2.13;;;1.10;;
16593;SDS011;8410;52.532;13.336;2023-08-20T13:40:36;1.77;;;1.15;;
16593;SDS011;8410;52.532;13.336;2023-08-20T13:43:04;2.15;;;1.42;;
16593;SDS011;8410;52.532;13.336;2023-08-20T13:45:32;2.25;;;1.55;;
16593;SDS011;8410;52.532;13.336;2023-08-20T13:48:00;3.50;;;1.45;;
16593;SDS011;8410;52.532;13.336;2023-08-20T13:50:27;1.75;;;1.40;;
16593;SDS011;8410;52.532;13.336;2023-08-20T13:52:55;2.45;;;1.40;;
16593;SDS011;8410;52.532;13.336;2023-08-20T13:55:26;1.52;;;1.10;;
16593;SDS011;8410;52.532;13.336;2023-08-20T13:57:54;2.78;;;1.30;;
16593;SDS011;8410;52.532;13.336;2023-08-20T14:00:22;1.88;;;1.20;;
16593;SDS011;8410;52.532;13.336;2023-08-20T14:02:49;2.28;;;1.10;;
16593;SDS011;8410;52.532;13.336;2023-08-20T14:05:17;2.83;;;1.20;;
16593;SDS011;8410;52.532;13.336;2023-08-20T14:07:45;1.98;;;1.02;;
16593;SDS011;8410;52.532;13.336;2023-08-20T14:10:13;4.22;;;1.30;;
16593;SDS011;8410;52.532;13.336;2023-08-20T14:12:42;2.25;;;1.00;;
16593;SDS011;8410;52.532;13.336;2023-08-20T14:15:10;2.33;;;1.20;;
16593;SDS011;8410;52.532;13.336;2023-08-20T14:17:37;1.48;;;0.75;;
16593;SDS011;8410;52.532;13.336;2023-08-20T14:20:05;2.72;;;1.00;;
16593;SDS011;8410;52.532;13.336;2023-08-20T14:22:34;1.58;;;0.88;;
16593;SDS011;8410;52.532;13.336;2023-08-20T14:25:03;1.67;;;1.13;;
16593;SDS011;8410;52.532;13.336;2023-08-20T14:27:31;2.65;;;1.25;;
16593;SDS011;8410;52.532;13.336;2023-08-20T14:30:00;1.73;;;1.00;;
16593;SDS011;8410;52.532;13.336;2023-08-20T14:32:29;1.65;;;1.25;;
16593;SDS011;8410;52.532;13.336;2023-08-20T14:34:56;1.45;;;1.10;;
16593;SDS011;8410;52.532;13.336;2023-08-20T14:37:24;1.83;;;1.30;;
16593;SDS011;8410;52.532;13.336;2023-08-20T14:39:52;2.70;;;0.80;;
16593;SDS011;8410;52.532;13.336;2023-08-20T14:42:19;1.05;;;1.00;;
16593;SDS011;8410;52.532;13.336;2023-08-20T14:44:47;1.65;;;1.00;;
16593;SDS011;8410;52.532;13.336;2023-08-20T14:47:16;2.67;;;1.60;;
16593;SDS011;8410;52.532;13.336;2023-08-20T14:49:43;2.00;;;1.40;;